createdAt,value
2022-12-17T00:01:01.779Z,0.20
2022-12-17T00:03:47.034Z,0.20
2022-12-17T00:06:32.041Z,0.20
2022-12-17T00:09:16.871Z,0.20
2022-12-17T00:12:01.948Z,0.30
2022-12-17T00:14:47.247Z,0.20
2022-12-17T00:17:39.729Z,0.20
2022-12-17T00:20:25.093Z,0.20
2022-12-17T00:23:16.696Z,0.28
2022-12-17T00:26:01.866Z,0.30
2022-12-17T00:28:46.727Z,0.20
2022-12-17T00:31:31.889Z,0.20
2022-12-17T00:34:17.418Z,0.30
2022-12-17T00:37:02.264Z,0.30
2022-12-17T00:39:47.517Z,0.20
2022-12-17T00:42:32.278Z,0.30
2022-12-17T00:45:17.396Z,0.30
2022-12-17T00:48:02.508Z,0.30
2022-12-17T00:50:47.713Z,0.30
2022-12-17T00:53:33.095Z,0.30
2022-12-17T00:56:18.514Z,0.30
2022-12-17T00:59:03.866Z,0.30
2022-12-17T01:01:49.305Z,0.25
2022-12-17T01:04:34.667Z,0.20
2022-12-17T01:07:19.876Z,0.20
2022-12-17T01:10:04.984Z,0.20
2022-12-17T01:12:50.188Z,0.20
2022-12-17T01:15:35.028Z,0.20
2022-12-17T01:18:20.337Z,1.48
2022-12-17T01:21:05.616Z,0.25
2022-12-17T01:23:50.567Z,0.20
2022-12-17T01:26:35.385Z,0.20
2022-12-17T01:29:20.515Z,0.20
2022-12-17T01:32:05.757Z,0.30
2022-12-17T01:34:52.217Z,0.20
2022-12-17T01:37:37.308Z,0.30
2022-12-17T01:40:22.206Z,0.20
2022-12-17T01:43:06.904Z,0.20
2022-12-17T01:46:03.757Z,0.22
2022-12-17T01:48:50.697Z,0.30
2022-12-17T01:51:36.637Z,0.30
2022-12-17T01:54:21.787Z,0.22
2022-12-17T01:57:07.023Z,0.20
2022-12-17T01:59:59.707Z,0.20
2022-12-17T02:02:44.794Z,0.20
2022-12-17T02:05:29.795Z,0.30
2022-12-17T02:08:41.137Z,0.20
2022-12-17T02:11:47.857Z,0.22
2022-12-17T02:14:41.445Z,0.30
2022-12-17T02:17:30.126Z,0.22
2022-12-17T02:20:32.987Z,0.28
2022-12-17T02:23:27.196Z,0.20
2022-12-17T02:26:12.248Z,0.20
2022-12-17T02:28:59.547Z,0.30
2022-12-17T02:31:46.206Z,1.98
2022-12-17T02:34:31.051Z,0.30
2022-12-17T02:37:15.930Z,0.30
2022-12-17T02:40:01.027Z,0.25
2022-12-17T02:42:47.147Z,0.20
2022-12-17T02:45:33.094Z,0.30
2022-12-17T02:48:19.258Z,0.55
2022-12-17T02:51:04.415Z,0.30
2022-12-17T02:53:51.587Z,0.30
2022-12-17T02:56:36.747Z,0.20
2022-12-17T02:59:21.747Z,0.20
2022-12-17T03:02:07.094Z,0.20
2022-12-17T03:04:52.094Z,0.30
2022-12-17T03:07:36.966Z,0.28
2022-12-17T03:10:22.087Z,0.28
2022-12-17T03:13:07.380Z,0.20
2022-12-17T03:15:52.257Z,0.20
2022-12-17T03:18:37.265Z,0.25
2022-12-17T03:21:22.262Z,0.20
2022-12-17T03:24:07.637Z,0.30
2022-12-17T03:26:52.848Z,0.30
2022-12-17T03:29:45.746Z,0.28
2022-12-17T03:32:31.022Z,0.25
2022-12-17T03:35:16.078Z,0.30
2022-12-17T03:38:00.937Z,0.20
2022-12-17T03:40:46.105Z,0.20
2022-12-17T03:43:31.006Z,0.28
2022-12-17T03:46:16.379Z,0.30
2022-12-17T03:49:01.229Z,0.30
2022-12-17T03:51:46.186Z,0.30
2022-12-17T03:54:31.065Z,0.28
2022-12-17T03:57:16.407Z,0.30
2022-12-17T04:00:02.019Z,0.30
2022-12-17T04:02:47.257Z,0.20
2022-12-17T04:05:32.299Z,0.30
2022-12-17T04:08:17.045Z,0.20
2022-12-17T04:11:01.952Z,0.30
2022-12-17T04:13:47.720Z,0.20
2022-12-17T04:16:33.350Z,0.20
2022-12-17T04:19:18.279Z,0.30
2022-12-17T04:22:03.318Z,0.20
2022-12-17T04:24:48.169Z,0.30
2022-12-17T04:27:33.077Z,0.20
2022-12-17T04:30:18.048Z,0.20
2022-12-17T04:33:02.989Z,0.30
2022-12-17T04:35:47.777Z,0.20
2022-12-17T04:38:32.903Z,0.20
2022-12-17T04:41:17.907Z,0.30
2022-12-17T04:44:03.633Z,0.20
2022-12-17T04:46:59.349Z,0.30
2022-12-17T04:49:44.391Z,0.30
2022-12-17T04:52:46.103Z,0.30
2022-12-17T04:55:31.400Z,0.20
2022-12-17T04:58:25.927Z,0.20
2022-12-17T05:01:12.145Z,0.30
2022-12-17T05:03:57.153Z,0.22
2022-12-17T05:06:42.579Z,0.30
2022-12-17T05:09:27.802Z,0.20
2022-12-17T05:12:12.792Z,0.30
2022-12-17T05:14:57.562Z,0.20
2022-12-17T05:17:42.887Z,0.30
2022-12-17T05:20:28.396Z,0.20
2022-12-17T05:23:13.520Z,0.65
2022-12-17T05:25:58.760Z,0.30
2022-12-17T05:28:43.817Z,0.30
2022-12-17T05:31:48.969Z,0.30
2022-12-17T05:34:33.844Z,0.20
2022-12-17T05:37:18.894Z,0.20
2022-12-17T05:40:09.226Z,0.20
2022-12-17T05:42:57.205Z,0.10
2022-12-17T05:45:42.129Z,0.30
2022-12-17T05:48:27.138Z,0.30
2022-12-17T05:51:12.287Z,0.20
2022-12-17T05:53:56.998Z,0.30
2022-12-17T05:56:41.940Z,0.30
2022-12-17T05:59:26.841Z,0.30
2022-12-17T06:02:11.825Z,0.20
2022-12-17T06:05:01.956Z,0.30
2022-12-17T06:07:47.470Z,0.20
2022-12-17T06:10:32.679Z,0.30
2022-12-17T06:13:17.614Z,0.30
2022-12-17T06:16:06.948Z,0.28
2022-12-17T06:18:52.635Z,0.30
2022-12-17T06:21:37.735Z,0.30
2022-12-17T06:24:22.862Z,0.20
2022-12-17T06:27:08.084Z,0.20
2022-12-17T06:29:52.864Z,0.30
2022-12-17T06:32:38.280Z,0.40
2022-12-17T06:35:23.725Z,0.30
2022-12-17T06:38:16.482Z,0.20
2022-12-17T06:41:03.347Z,0.30
2022-12-17T06:43:48.288Z,0.28
2022-12-17T06:46:33.466Z,0.30
2022-12-17T06:49:35.387Z,0.30
2022-12-17T06:52:20.437Z,0.30
2022-12-17T06:55:05.309Z,1.08
2022-12-17T06:57:50.792Z,0.30
2022-12-17T07:00:36.356Z,0.30
2022-12-17T07:03:21.675Z,0.30
2022-12-17T07:06:06.801Z,0.20
2022-12-17T07:08:51.565Z,0.25
2022-12-17T07:11:37.252Z,0.20
2022-12-17T07:14:22.459Z,0.30
2022-12-17T07:17:07.244Z,0.30
2022-12-17T07:19:52.068Z,0.82
2022-12-17T07:22:37.286Z,0.30
2022-12-17T07:25:22.150Z,0.32
2022-12-17T07:28:16.179Z,0.30
2022-12-17T07:31:01.060Z,0.30
2022-12-17T07:33:45.973Z,0.20
2022-12-17T07:36:30.914Z,0.20
2022-12-17T07:39:17.706Z,0.30
2022-12-17T07:42:02.511Z,0.30
2022-12-17T07:44:47.306Z,0.22
2022-12-17T07:47:32.428Z,0.30
2022-12-17T07:50:17.676Z,0.30
2022-12-17T07:53:02.509Z,0.35
2022-12-17T07:55:47.429Z,0.30
2022-12-17T07:58:32.407Z,0.30
2022-12-17T08:01:20.371Z,0.30
2022-12-17T08:04:05.628Z,0.30
2022-12-17T08:06:50.468Z,0.20
2022-12-17T08:09:35.344Z,0.20
2022-12-17T08:12:20.115Z,0.20
2022-12-17T08:15:05.074Z,0.20
2022-12-17T08:17:50.182Z,0.20
2022-12-17T08:20:35.012Z,0.20
2022-12-17T08:23:23.033Z,0.22
2022-12-17T08:26:08.685Z,0.30
2022-12-17T08:28:54.191Z,0.30
2022-12-17T08:31:39.534Z,0.30
2022-12-17T08:34:24.437Z,0.20
2022-12-17T08:37:09.388Z,0.20
2022-12-17T08:39:54.608Z,0.30
2022-12-17T08:42:39.586Z,0.30
2022-12-17T08:45:25.192Z,0.20
2022-12-17T08:48:10.307Z,0.20
2022-12-17T08:50:55.151Z,0.20
2022-12-17T08:53:40.303Z,0.30
2022-12-17T08:56:25.682Z,0.20
2022-12-17T08:59:10.728Z,0.30
2022-12-17T09:01:55.921Z,0.20
2022-12-17T09:04:41.249Z,0.30
2022-12-17T09:07:26.141Z,0.30
2022-12-17T09:10:10.978Z,0.20
2022-12-17T09:13:04.602Z,0.20
2022-12-17T09:15:50.071Z,0.20
2022-12-17T09:18:38.932Z,0.20
2022-12-17T09:21:23.964Z,0.22
2022-12-17T09:24:08.721Z,0.30
2022-12-17T09:26:54.067Z,0.20
2022-12-17T09:29:38.938Z,0.20
2022-12-17T09:32:23.807Z,0.25
2022-12-17T09:35:08.800Z,0.22
2022-12-17T09:37:53.740Z,0.20
2022-12-17T09:40:43.040Z,0.30
2022-12-17T09:43:51.114Z,0.30
2022-12-17T09:46:36.068Z,0.15
2022-12-17T09:49:31.875Z,0.20
2022-12-17T09:52:17.024Z,0.20
2022-12-17T09:55:06.964Z,0.30
2022-12-17T09:57:53.613Z,0.22
2022-12-17T10:00:40.982Z,0.30
2022-12-17T10:03:30.340Z,0.40
2022-12-17T10:06:22.222Z,0.30
2022-12-17T10:09:09.462Z,0.40
2022-12-17T10:11:55.682Z,0.30
2022-12-17T10:14:41.734Z,0.30
2022-12-17T10:17:34.842Z,0.30
2022-12-17T10:20:19.609Z,0.30
2022-12-17T10:23:09.022Z,0.30
2022-12-17T10:25:54.504Z,0.30
2022-12-17T10:28:40.924Z,0.20
2022-12-17T10:31:27.718Z,0.20
2022-12-17T10:34:15.915Z,0.20
2022-12-17T10:37:08.418Z,0.22
2022-12-17T10:39:53.812Z,0.30
2022-12-17T10:42:45.735Z,0.30
2022-12-17T10:45:47.731Z,0.20
2022-12-17T10:48:37.043Z,0.20
2022-12-17T10:51:22.932Z,0.22
2022-12-17T10:54:09.092Z,0.20
2022-12-17T10:56:54.063Z,0.28
2022-12-17T10:59:54.092Z,0.20
2022-12-17T11:02:41.216Z,0.20
2022-12-17T11:05:33.801Z,0.20
2022-12-17T11:08:19.383Z,0.30
2022-12-17T11:11:04.771Z,0.20
2022-12-17T11:13:55.447Z,0.30
2022-12-17T11:16:42.872Z,0.30
2022-12-17T11:19:28.025Z,0.20
2022-12-17T11:22:15.713Z,0.30
2022-12-17T11:25:00.732Z,0.20
2022-12-17T11:27:47.524Z,0.30
2022-12-17T11:30:33.532Z,0.20
2022-12-17T11:33:23.964Z,0.30
2022-12-17T11:36:08.772Z,0.30
2022-12-17T11:38:58.223Z,0.30
2022-12-17T11:42:04.449Z,0.20
2022-12-17T11:44:53.091Z,0.20
2022-12-17T11:47:41.001Z,0.20
2022-12-17T11:50:39.158Z,0.30
2022-12-17T11:53:43.349Z,0.30
2022-12-17T11:56:39.899Z,0.30
2022-12-17T11:59:47.948Z,0.30
2022-12-17T12:02:45.171Z,0.22
2022-12-17T12:05:36.373Z,0.20
2022-12-17T12:08:21.212Z,0.30
2022-12-17T12:11:12.373Z,0.20
2022-12-17T12:14:01.464Z,0.22
2022-12-17T12:16:57.953Z,0.30
2022-12-17T12:20:02.365Z,1.10
2022-12-17T12:23:00.840Z,0.25
2022-12-17T12:26:04.888Z,0.30
2022-12-17T12:28:56.568Z,0.30
2022-12-17T12:31:44.976Z,0.20
2022-12-17T12:34:32.019Z,0.30
2022-12-17T12:37:18.673Z,0.22
2022-12-17T12:40:11.251Z,0.77
2022-12-17T12:43:16.913Z,0.25
2022-12-17T12:46:12.419Z,0.22
2022-12-17T12:48:58.448Z,0.20
2022-12-17T12:51:44.978Z,0.60
2022-12-17T12:54:44.114Z,0.20
2022-12-17T12:57:48.381Z,0.20
2022-12-17T13:00:45.390Z,0.30
2022-12-17T13:03:39.966Z,0.60
2022-12-17T13:06:06.792Z,0.20
2022-12-17T13:08:33.267Z,0.20
2022-12-17T13:11:09.580Z,0.40
2022-12-17T13:13:39.770Z,0.20
2022-12-17T13:16:25.021Z,0.20
2022-12-17T13:19:00.839Z,0.30
2022-12-17T13:21:29.658Z,0.30
2022-12-17T13:23:56.200Z,0.40
2022-12-17T13:26:24.163Z,0.30
2022-12-17T13:28:56.586Z,0.50
2022-12-17T13:31:26.424Z,0.30
2022-12-17T13:33:58.782Z,0.28
2022-12-17T13:36:25.272Z,0.30
2022-12-17T13:39:15.238Z,1.27
2022-12-17T13:41:41.736Z,0.20
2022-12-17T13:44:25.491Z,0.10
2022-12-17T13:46:53.219Z,0.20
2022-12-17T13:49:19.699Z,0.30
2022-12-17T13:51:46.238Z,0.60
2022-12-17T13:54:16.949Z,0.32
2022-12-17T13:56:43.865Z,0.20
2022-12-17T13:59:20.939Z,0.20
2022-12-17T14:01:48.817Z,0.13
2022-12-17T14:04:33.409Z,0.20
2022-12-17T14:07:00.928Z,0.30
2022-12-17T14:09:47.638Z,0.25
2022-12-17T14:12:25.101Z,0.28
2022-12-17T14:14:57.033Z,0.20
2022-12-17T14:17:25.318Z,0.20
2022-12-17T14:20:05.922Z,0.30
2022-12-17T14:22:34.673Z,0.30
2022-12-17T14:25:01.507Z,0.20
2022-12-17T14:27:32.468Z,0.20
2022-12-17T14:29:59.100Z,0.20
2022-12-17T14:32:30.478Z,0.20
2022-12-17T14:35:00.654Z,0.20
2022-12-17T14:37:28.398Z,0.20
2022-12-17T14:39:58.701Z,0.25
2022-12-17T14:42:25.812Z,0.20
2022-12-17T14:44:54.188Z,0.30
2022-12-17T14:47:31.008Z,0.20
2022-12-17T14:50:05.370Z,0.35
2022-12-17T14:52:35.289Z,1.05
2022-12-17T14:55:02.538Z,0.15
2022-12-17T14:57:28.999Z,0.30
2022-12-17T14:59:56.136Z,0.10
2022-12-17T15:02:30.485Z,0.20
2022-12-17T15:04:58.203Z,0.20
2022-12-17T15:07:25.970Z,0.20
2022-12-17T15:09:52.979Z,0.20
2022-12-17T15:12:20.360Z,0.28
2022-12-17T15:14:46.898Z,0.20
2022-12-17T15:17:13.478Z,0.30
2022-12-17T15:19:40.147Z,1.88
2022-12-17T15:22:06.648Z,0.30
2022-12-17T15:24:33.176Z,0.28
2022-12-17T15:26:59.629Z,0.20
2022-12-17T15:29:26.269Z,0.20
2022-12-17T15:31:52.788Z,0.20
2022-12-17T15:34:19.289Z,0.25
2022-12-17T15:36:45.738Z,0.20
2022-12-17T15:39:12.259Z,0.30
2022-12-17T15:41:57.349Z,0.20
2022-12-17T15:44:23.858Z,0.20
2022-12-17T15:46:50.358Z,0.25
2022-12-17T15:49:16.819Z,0.28
2022-12-17T15:51:43.359Z,0.30
2022-12-17T15:54:09.809Z,0.20
2022-12-17T15:56:37.268Z,0.20
2022-12-17T15:59:03.899Z,0.20
2022-12-17T16:01:30.538Z,0.20
2022-12-17T16:03:57.581Z,0.20
2022-12-17T16:06:24.120Z,10.07
2022-12-17T16:08:50.733Z,10.45
2022-12-17T16:11:17.367Z,9.25
2022-12-17T16:13:43.916Z,9.27
2022-12-17T16:16:10.946Z,9.27
2022-12-17T16:18:39.036Z,8.15
2022-12-17T16:21:06.978Z,10.38
2022-12-17T16:23:33.479Z,9.65
2022-12-17T16:26:01.719Z,11.77
2022-12-17T16:28:29.169Z,12.00
2022-12-17T16:31:05.960Z,10.10
2022-12-17T16:33:37.578Z,8.85
2022-12-17T16:36:05.019Z,9.63
2022-12-17T16:38:31.620Z,10.63
2022-12-17T16:40:58.842Z,10.43
2022-12-17T16:43:25.738Z,9.02
2022-12-17T16:45:52.812Z,7.15
2022-12-17T16:48:20.088Z,9.30
2022-12-17T16:50:47.508Z,9.10
2022-12-17T16:53:14.478Z,10.73
2022-12-17T16:55:48.129Z,12.70
2022-12-17T16:58:15.559Z,8.90
2022-12-17T17:00:42.558Z,9.25
2022-12-17T17:03:10.049Z,9.70
2022-12-17T17:05:38.168Z,9.85
2022-12-17T17:08:05.179Z,7.55
2022-12-17T17:10:32.119Z,8.57
2022-12-17T17:12:58.589Z,8.20
2022-12-17T17:15:26.152Z,9.48
2022-12-17T17:17:56.297Z,8.75
2022-12-17T17:20:32.339Z,11.75
2022-12-17T17:22:59.148Z,9.07
2022-12-17T17:25:38.507Z,8.32
2022-12-17T17:28:10.670Z,8.00
2022-12-17T17:30:37.338Z,11.00
2022-12-17T17:33:03.858Z,6.95
2022-12-17T17:35:30.339Z,8.07
2022-12-17T17:37:56.778Z,10.13
2022-12-17T17:40:23.298Z,9.32
2022-12-17T17:42:52.964Z,7.50
2022-12-17T17:45:19.960Z,9.15
2022-12-17T17:47:46.561Z,6.50
2022-12-17T17:50:13.078Z,7.72
2022-12-17T17:52:39.578Z,7.90
2022-12-17T17:55:06.408Z,11.15
2022-12-17T17:57:32.955Z,8.80
2022-12-17T17:59:59.460Z,6.55
2022-12-17T18:02:26.105Z,6.40
2022-12-17T18:04:52.801Z,7.00
2022-12-17T18:07:28.129Z,6.93
2022-12-17T18:09:55.283Z,7.53
2022-12-17T18:12:40.499Z,6.70
2022-12-17T18:15:16.311Z,7.90
2022-12-17T18:17:46.720Z,6.88
2022-12-17T18:20:14.017Z,5.85
2022-12-17T18:22:40.511Z,7.50
2022-12-17T18:25:07.195Z,9.45
2022-12-17T18:27:33.680Z,7.75
2022-12-17T18:30:00.167Z,7.70
2022-12-17T18:32:26.662Z,6.55
2022-12-17T18:34:53.408Z,7.43
2022-12-17T18:37:21.205Z,9.23
2022-12-17T18:39:48.528Z,6.32
2022-12-17T18:42:33.632Z,6.68
2022-12-17T18:45:00.298Z,7.70
2022-12-17T18:47:27.129Z,7.88
2022-12-17T18:49:54.199Z,8.20
2022-12-17T18:52:22.725Z,8.45
2022-12-17T18:54:49.311Z,8.32
2022-12-17T18:57:16.351Z,8.30
2022-12-17T18:59:42.837Z,7.05
2022-12-17T19:02:12.898Z,5.97
2022-12-17T19:04:39.647Z,6.38
2022-12-17T19:07:06.427Z,7.75
2022-12-17T19:09:36.898Z,7.60
2022-12-17T19:12:04.557Z,10.60
2022-12-17T19:14:31.039Z,6.88
2022-12-17T19:16:59.183Z,10.48
2022-12-17T19:19:26.150Z,8.90
2022-12-17T19:21:54.985Z,7.65
2022-12-17T19:24:22.163Z,8.10
2022-12-17T19:26:49.139Z,6.88
2022-12-17T19:29:16.539Z,5.75
2022-12-17T19:31:43.804Z,7.30
2022-12-17T19:34:12.118Z,6.93
2022-12-17T19:36:39.199Z,9.38
2022-12-17T19:39:07.233Z,5.03
2022-12-17T19:41:34.148Z,5.40
2022-12-17T19:44:01.779Z,6.47
2022-12-17T19:46:29.845Z,4.32
2022-12-17T19:48:57.421Z,7.68
2022-12-17T19:51:25.586Z,8.73
2022-12-17T19:53:52.466Z,5.53
2022-12-17T19:56:20.205Z,5.22
2022-12-17T19:58:48.050Z,6.05
2022-12-17T20:01:16.163Z,5.40
2022-12-17T20:03:43.761Z,5.00
2022-12-17T20:06:11.500Z,5.95
2022-12-17T20:08:38.281Z,6.05
2022-12-17T20:11:25.670Z,6.45
2022-12-17T20:14:18.410Z,5.88
2022-12-17T20:16:49.354Z,5.47
2022-12-17T20:19:20.099Z,5.15
2022-12-17T20:21:47.024Z,4.05
2022-12-17T20:24:14.492Z,6.80
2022-12-17T20:26:41.153Z,4.75
2022-12-17T20:29:07.724Z,6.28
2022-12-17T20:31:34.357Z,6.50
2022-12-17T20:34:01.755Z,5.38
2022-12-17T20:36:30.296Z,4.60
2022-12-17T20:38:57.599Z,5.78
2022-12-17T20:41:25.906Z,6.93
2022-12-17T20:43:52.809Z,8.18
2022-12-17T20:46:20.055Z,14.13
2022-12-17T20:48:46.730Z,4.90
2022-12-17T20:51:17.688Z,5.57
2022-12-17T20:53:44.911Z,5.93
2022-12-17T20:56:13.750Z,4.80
2022-12-17T20:58:41.350Z,5.57
2022-12-17T21:01:09.757Z,4.95
2022-12-17T21:03:36.846Z,4.07
2022-12-17T21:06:14.580Z,5.40
2022-12-17T21:08:47.688Z,5.50
2022-12-17T21:11:17.038Z,4.45
2022-12-17T21:13:43.546Z,4.97
2022-12-17T21:16:11.920Z,4.40
2022-12-17T21:18:39.465Z,5.50
2022-12-17T21:21:08.091Z,4.95
2022-12-17T21:23:35.247Z,5.25
2022-12-17T21:26:08.586Z,5.13
2022-12-17T21:28:38.606Z,3.85
2022-12-17T21:31:05.950Z,4.47
2022-12-17T21:33:32.539Z,4.68
2022-12-17T21:36:05.923Z,6.10
2022-12-17T21:38:34.519Z,5.03
2022-12-17T21:41:08.381Z,5.13
2022-12-17T21:43:36.983Z,4.72
2022-12-17T21:46:04.601Z,3.45
2022-12-17T21:48:33.421Z,5.20
2022-12-17T21:51:05.430Z,4.88
2022-12-17T21:53:32.339Z,7.03
2022-12-17T21:56:02.638Z,4.68
2022-12-17T21:58:29.472Z,4.28
2022-12-17T22:00:56.631Z,3.80
2022-12-17T22:03:23.479Z,4.13
2022-12-17T22:05:50.080Z,4.97
2022-12-17T22:08:18.889Z,5.60
2022-12-17T22:10:52.411Z,4.40
2022-12-17T22:13:37.622Z,3.97
2022-12-17T22:16:05.684Z,4.30
2022-12-17T22:18:32.239Z,6.82
2022-12-17T22:20:59.820Z,4.20
2022-12-17T22:23:26.361Z,4.65
2022-12-17T22:25:53.219Z,6.30
2022-12-17T22:28:21.100Z,4.45
2022-12-17T22:31:06.895Z,4.90
2022-12-17T22:33:53.612Z,3.85
2022-12-17T22:37:58.155Z,4.22
2022-12-17T22:41:25.909Z,4.30
2022-12-17T22:44:36.667Z,4.78
2022-12-17T22:45:09.226Z,4.18
2022-12-17T22:47:37.478Z,3.53
2022-12-17T22:50:04.078Z,4.13
2022-12-17T22:52:31.240Z,4.45
2022-12-17T22:54:58.070Z,4.40
2022-12-17T22:57:37.604Z,5.18
2022-12-17T23:00:17.360Z,3.95
2022-12-17T23:02:43.965Z,6.43
2022-12-17T23:05:10.529Z,4.15
2022-12-17T23:07:37.018Z,3.80
2022-12-17T23:10:04.289Z,3.75
2022-12-17T23:12:49.552Z,3.83
2022-12-17T23:15:16.428Z,4.75
2022-12-17T23:17:43.113Z,4.07
2022-12-17T23:20:10.138Z,3.67
2022-12-17T23:22:36.718Z,3.47
2022-12-17T23:25:03.978Z,3.33
2022-12-17T23:27:30.500Z,4.50
2022-12-17T23:29:57.218Z,4.85
2022-12-17T23:32:23.696Z,4.05
2022-12-17T23:34:50.155Z,3.38
2022-12-17T23:37:16.749Z,5.30
2022-12-17T23:39:43.215Z,3.20
2022-12-17T23:42:09.687Z,4.22
2022-12-17T23:44:36.159Z,4.43
2022-12-17T23:47:02.783Z,5.00
2022-12-17T23:49:29.299Z,2.92
2022-12-17T23:51:55.758Z,4.30
2022-12-17T23:54:22.184Z,4.60
2022-12-17T23:56:48.676Z,3.88
2022-12-17T23:59:15.120Z,3.50
